sensor_id;sensor_type;location;lat;lon;timestamp;pressure;altitude;pressure_sealevel;temperature;humidity
1832;BME280;1680;48.106;11.708;2023-09-08T00:01:11;95807.75;;;15.26;100.00
1832;BME280;1680;48.106;11.708;2023-09-08T00:03:39;95822.63;;;15.32;100.00
1832;BME280;1680;48.106;11.708;2023-09-08T00:06:14;95825.28;;;15.32;100.00
1832;BME280;1680;48.106;11.708;2023-09-08T00:08:41;95825.84;;;15.34;100.00
1832;BME280;1680;48.106;11.708;2023-09-08T00:11:10;95831.31;;;15.27;100.00
1832;BME280;1680;48.106;11.708;2023-09-08T00:13:37;95827.25;;;15.25;100.00
1832;BME280;1680;48.106;11.708;2023-09-08T00:16:06;95825.59;;;15.19;100.00
1832;BME280;1680;48.106;11.708;2023-09-08T00:18:35;95818.63;;;15.13;100.00
1832;BME280;1680;48.106;11.708;2023-09-08T00:21:02;95822.00;;;15.08;100.00
1832;BME280;1680;48.106;11.708;2023-09-08T00:23:29;95820.84;;;15.21;100.00
1832;BME280;1680;48.106;11.708;2023-09-08T00:25:57;95812.44;;;15.24;100.00
1832;BME280;1680;48.106;11.708;2023-09-08T00:28:26;95802.59;;;15.19;100.00
1832;BME280;1680;48.106;11.708;2023-09-08T00:30:53;95816.06;;;15.18;100.00
1832;BME280;1680;48.106;11.708;2023-09-08T00:33:20;95810.63;;;15.08;100.00
1832;BME280;1680;48.106;11.708;2023-09-08T00:35:48;95805.84;;;15.05;100.00
1832;BME280;1680;48.106;11.708;2023-09-08T00:38:16;95797.84;;;15.00;100.00
1832;BME280;1680;48.106;11.708;2023-09-08T00:40:43;95806.94;;;15.09;100.00
1832;BME280;1680;48.106;11.708;2023-09-08T00:43:10;95783.53;;;14.96;100.00
1832;BME280;1680;48.106;11.708;2023-09-08T00:45:42;95806.50;;;14.95;100.00
1832;BME280;1680;48.106;11.708;2023-09-08T00:48:10;95810.91;;;14.90;100.00
1832;BME280;1680;48.106;11.708;2023-09-08T00:50:37;95817.53;;;14.76;100.00
1832;BME280;1680;48.106;11.708;2023-09-08T00:53:05;95815.38;;;14.89;100.00
1832;BME280;1680;48.106;11.708;2023-09-08T00:55:33;95819.78;;;14.84;100.00
1832;BME280;1680;48.106;11.708;2023-09-08T00:58:02;95806.84;;;14.66;100.00
1832;BME280;1680;48.106;11.708;2023-09-08T01:00:29;95812.59;;;14.63;100.00
1832;BME280;1680;48.106;11.708;2023-09-08T01:02:59;95794.06;;;14.58;100.00
1832;BME280;1680;48.106;11.708;2023-09-08T01:05:27;95809.88;;;14.58;100.00
1832;BME280;1680;48.106;11.708;2023-09-08T01:07:55;95804.75;;;14.68;100.00
1832;BME280;1680;48.106;11.708;2023-09-08T01:10:24;95802.53;;;14.60;100.00
1832;BME280;1680;48.106;11.708;2023-09-08T01:12:51;95802.03;;;14.63;100.00
1832;BME280;1680;48.106;11.708;2023-09-08T01:15:18;95805.22;;;14.65;100.00
1832;BME280;1680;48.106;11.708;2023-09-08T01:17:45;95803.72;;;14.69;100.00
1832;BME280;1680;48.106;11.708;2023-09-08T01:20:18;95812.44;;;14.69;100.00
1832;BME280;1680;48.106;11.708;2023-09-08T01:23:03;95814.66;;;14.61;100.00
1832;BME280;1680;48.106;11.708;2023-09-08T01:25:40;95800.75;;;14.49;100.00
1832;BME280;1680;48.106;11.708;2023-09-08T01:28:11;95809.38;;;14.45;100.00
1832;BME280;1680;48.106;11.708;2023-09-08T01:30:40;95810.75;;;14.47;100.00
1832;BME280;1680;48.106;11.708;2023-09-08T01:33:07;95807.00;;;14.43;100.00
1832;BME280;1680;48.106;11.708;2023-09-08T01:35:35;95790.50;;;14.36;100.00
1832;BME280;1680;48.106;11.708;2023-09-08T01:38:02;95804.44;;;14.48;100.00
1832;BME280;1680;48.106;11.708;2023-09-08T01:40:30;95811.72;;;14.41;100.00
1832;BME280;1680;48.106;11.708;2023-09-08T01:42:58;95811.06;;;14.34;100.00
1832;BME280;1680;48.106;11.708;2023-09-08T01:45:25;95803.78;;;14.57;100.00
1832;BME280;1680;48.106;11.708;2023-09-08T01:47:55;95807.38;;;14.35;100.00
1832;BME280;1680;48.106;11.708;2023-09-08T01:50:23;95811.00;;;14.29;100.00
1832;BME280;1680;48.106;11.708;2023-09-08T01:52:50;95794.78;;;14.09;100.00
1832;BME280;1680;48.106;11.708;2023-09-08T01:55:17;95767.00;;;13.90;100.00
1832;BME280;1680;48.106;11.708;2023-09-08T01:57:46;95796.53;;;14.04;100.00
1832;BME280;1680;48.106;11.708;2023-09-08T02:00:14;95802.25;;;14.12;100.00
1832;BME280;1680;48.106;11.708;2023-09-08T02:02:42;95796.84;;;14.07;100.00
1832;BME280;1680;48.106;11.708;2023-09-08T02:05:09;95793.63;;;14.05;100.00
1832;BME280;1680;48.106;11.708;2023-09-08T02:07:36;95773.78;;;13.86;100.00
1832;BME280;1680;48.106;11.708;2023-09-08T02:10:04;95793.94;;;13.92;100.00
1832;BME280;1680;48.106;11.708;2023-09-08T02:12:32;95790.56;;;13.97;100.00
1832;BME280;1680;48.106;11.708;2023-09-08T02:14:59;95793.00;;;13.98;100.00
1832;BME280;1680;48.106;11.708;2023-09-08T02:17:27;95798.41;;;13.92;100.00
1832;BME280;1680;48.106;11.708;2023-09-08T02:19:54;95788.84;;;14.02;100.00
1832;BME280;1680;48.106;11.708;2023-09-08T02:22:22;95791.88;;;13.94;100.00
1832;BME280;1680;48.106;11.708;2023-09-08T02:24:49;95775.19;;;13.77;100.00
1832;BME280;1680;48.106;11.708;2023-09-08T02:27:17;95793.16;;;13.92;100.00
1832;BME280;1680;48.106;11.708;2023-09-08T02:29:44;95784.88;;;13.88;100.00
1832;BME280;1680;48.106;11.708;2023-09-08T02:32:11;95801.75;;;13.87;100.00
1832;BME280;1680;48.106;11.708;2023-09-08T02:34:40;95799.75;;;13.78;100.00
1832;BME280;1680;48.106;11.708;2023-09-08T02:37:08;95796.75;;;13.74;100.00
1832;BME280;1680;48.106;11.708;2023-09-08T02:39:35;95785.28;;;13.80;100.00
1832;BME280;1680;48.106;11.708;2023-09-08T02:42:04;95792.16;;;13.81;100.00
1832;BME280;1680;48.106;11.708;2023-09-08T02:44:31;95796.75;;;13.74;100.00
1832;BME280;1680;48.106;11.708;2023-09-08T02:46:59;95796.28;;;13.77;100.00
1832;BME280;1680;48.106;11.708;2023-09-08T02:49:26;95782.34;;;13.65;100.00
1832;BME280;1680;48.106;11.708;2023-09-08T02:51:54;95796.44;;;13.71;100.00
1832;BME280;1680;48.106;11.708;2023-09-08T02:54:21;95801.00;;;13.75;100.00
1832;BME280;1680;48.106;11.708;2023-09-08T02:56:49;95792.75;;;13.72;100.00
1832;BME280;1680;48.106;11.708;2023-09-08T02:59:16;95774.72;;;13.53;100.00
1832;BME280;1680;48.106;11.708;2023-09-08T03:01:43;95793.03;;;13.59;100.00
1832;BME280;1680;48.106;11.708;2023-09-08T03:04:10;95801.59;;;13.66;100.00
1832;BME280;1680;48.106;11.708;2023-09-08T03:06:37;95797.03;;;13.61;100.00
1832;BME280;1680;48.106;11.708;2023-09-08T03:09:06;95781.22;;;13.61;100.00
1832;BME280;1680;48.106;11.708;2023-09-08T03:11:33;95772.03;;;13.64;100.00
1832;BME280;1680;48.106;11.708;2023-09-08T03:14:02;95778.75;;;13.71;100.00
1832;BME280;1680;48.106;11.708;2023-09-08T03:16:30;95789.66;;;13.75;100.00
1832;BME280;1680;48.106;11.708;2023-09-08T03:18:57;95789.88;;;13.73;100.00
1832;BME280;1680;48.106;11.708;2023-09-08T03:21:24;95790.25;;;13.65;100.00
1832;BME280;1680;48.106;11.708;2023-09-08T03:23:51;95785.00;;;13.65;100.00
1832;BME280;1680;48.106;11.708;2023-09-08T03:26:20;95767.19;;;13.45;100.00
1832;BME280;1680;48.106;11.708;2023-09-08T03:28:47;95796.72;;;13.47;100.00
1832;BME280;1680;48.106;11.708;2023-09-08T03:31:14;95796.97;;;13.45;100.00
1832;BME280;1680;48.106;11.708;2023-09-08T03:33:42;95784.03;;;13.44;100.00
1832;BME280;1680;48.106;11.708;2023-09-08T03:36:09;95791.56;;;13.52;100.00
1832;BME280;1680;48.106;11.708;2023-09-08T03:38:36;95798.34;;;13.48;100.00
1832;BME280;1680;48.106;11.708;2023-09-08T03:41:03;95780.06;;;13.30;100.00
1832;BME280;1680;48.106;11.708;2023-09-08T03:43:32;95799.88;;;13.32;100.00
1832;BME280;1680;48.106;11.708;2023-09-08T03:45:59;95794.22;;;13.40;100.00
1832;BME280;1680;48.106;11.708;2023-09-08T03:48:26;95793.34;;;13.35;100.00
1832;BME280;1680;48.106;11.708;2023-09-08T03:50:53;95792.06;;;13.37;100.00
1832;BME280;1680;48.106;11.708;2023-09-08T03:53:21;95793.91;;;13.37;100.00
1832;BME280;1680;48.106;11.708;2023-09-08T03:55:48;95795.56;;;13.54;100.00
1832;BME280;1680;48.106;11.708;2023-09-08T03:58:15;95773.84;;;13.36;100.00
1832;BME280;1680;48.106;11.708;2023-09-08T04:00:44;95796.16;;;13.45;100.00
1832;BME280;1680;48.106;11.708;2023-09-08T04:03:11;95797.31;;;13.49;100.00
1832;BME280;1680;48.106;11.708;2023-09-08T04:05:38;95794.34;;;13.45;100.00
1832;BME280;1680;48.106;11.708;2023-09-08T04:08:05;95794.09;;;13.47;100.00
1832;BME280;1680;48.106;11.708;2023-09-08T04:10:32;95794.22;;;13.40;100.00
1832;BME280;1680;48.106;11.708;2023-09-08T04:13:00;95801.34;;;13.40;100.00
1832;BME280;1680;48.106;11.708;2023-09-08T04:15:27;95799.25;;;13.42;100.00
1832;BME280;1680;48.106;11.708;2023-09-08T04:17:55;95798.03;;;13.33;100.00
1832;BME280;1680;48.106;11.708;2023-09-08T04:20:23;95800.31;;;13.41;100.00
1832;BME280;1680;48.106;11.708;2023-09-08T04:22:50;95794.81;;;13.31;100.00
1832;BME280;1680;48.106;11.708;2023-09-08T04:25:18;95793.69;;;13.27;100.00
1832;BME280;1680;48.106;11.708;2023-09-08T04:27:45;95790.97;;;13.22;100.00
1832;BME280;1680;48.106;11.708;2023-09-08T04:30:13;95787.28;;;13.23;100.00
1832;BME280;1680;48.106;11.708;2023-09-08T04:32:40;95788.31;;;13.22;100.00
1832;BME280;1680;48.106;11.708;2023-09-08T04:35:09;95790.84;;;13.17;100.00
1832;BME280;1680;48.106;11.708;2023-09-08T04:37:37;95789.81;;;13.18;100.00
1832;BME280;1680;48.106;11.708;2023-09-08T04:40:05;95793.34;;;13.12;100.00
1832;BME280;1680;48.106;11.708;2023-09-08T04:42:33;95790.72;;;13.12;100.00
1832;BME280;1680;48.106;11.708;2023-09-08T04:45:00;95799.69;;;13.11;100.00
1832;BME280;1680;48.106;11.708;2023-09-08T04:47:27;95792.13;;;13.03;100.00
1832;BME280;1680;48.106;11.708;2023-09-08T04:49:54;95792.31;;;13.13;100.00
1832;BME280;1680;48.106;11.708;2023-09-08T04:52:23;95796.34;;;13.15;100.00
1832;BME280;1680;48.106;11.708;2023-09-08T04:54:50;95785.38;;;13.07;100.00
1832;BME280;1680;48.106;11.708;2023-09-08T04:57:17;95794.19;;;13.01;100.00
1832;BME280;1680;48.106;11.708;2023-09-08T04:59:44;95795.78;;;13.02;100.00
1832;BME280;1680;48.106;11.708;2023-09-08T05:02:11;95797.59;;;13.13;100.00
1832;BME280;1680;48.106;11.708;2023-09-08T05:04:38;95816.47;;;13.21;100.00
1832;BME280;1680;48.106;11.708;2023-09-08T05:07:05;95805.72;;;13.23;100.00
1832;BME280;1680;48.106;11.708;2023-09-08T05:09:34;95803.75;;;13.30;100.00
1832;BME280;1680;48.106;11.708;2023-09-08T05:12:02;95804.44;;;13.37;100.00
1832;BME280;1680;48.106;11.708;2023-09-08T05:14:29;95806.38;;;13.41;100.00
1832;BME280;1680;48.106;11.708;2023-09-08T05:16:56;95796.88;;;13.29;100.00
1832;BME280;1680;48.106;11.708;2023-09-08T05:19:23;95814.72;;;13.38;100.00
1832;BME280;1680;48.106;11.708;2023-09-08T05:21:51;95816.31;;;13.51;100.00
1832;BME280;1680;48.106;11.708;2023-09-08T05:24:18;95812.19;;;13.55;100.00
1832;BME280;1680;48.106;11.708;2023-09-08T05:26:47;95818.38;;;13.60;100.00
1832;BME280;1680;48.106;11.708;2023-09-08T05:29:14;95817.47;;;13.55;100.00
1832;BME280;1680;48.106;11.708;2023-09-08T05:31:42;95819.81;;;13.67;100.00
1832;BME280;1680;48.106;11.708;2023-09-08T05:34:09;95816.16;;;13.68;100.00
1832;BME280;1680;48.106;11.708;2023-09-08T05:36:36;95816.06;;;13.63;100.00
1832;BME280;1680;48.106;11.708;2023-09-08T05:39:05;95791.66;;;13.56;100.00
1832;BME280;1680;48.106;11.708;2023-09-08T05:41:32;95803.44;;;13.65;100.00
1832;BME280;1680;48.106;11.708;2023-09-08T05:44:01;95830.88;;;13.81;100.00
1832;BME280;1680;48.106;11.708;2023-09-08T05:46:29;95835.22;;;13.87;100.00
1832;BME280;1680;48.106;11.708;2023-09-08T05:48:56;95835.56;;;13.90;100.00
1832;BME280;1680;48.106;11.708;2023-09-08T05:51:23;95819.16;;;13.88;100.00
1832;BME280;1680;48.106;11.708;2023-09-08T05:53:50;95836.66;;;14.06;100.00
1832;BME280;1680;48.106;11.708;2023-09-08T05:56:18;95836.06;;;14.15;100.00
1832;BME280;1680;48.106;11.708;2023-09-08T05:58:46;95836.72;;;14.22;100.00
1832;BME280;1680;48.106;11.708;2023-09-08T06:01:15;95842.97;;;14.33;100.00
1832;BME280;1680;48.106;11.708;2023-09-08T06:03:42;95840.91;;;14.35;100.00
1832;BME280;1680;48.106;11.708;2023-09-08T06:06:09;95838.66;;;14.43;100.00
1832;BME280;1680;48.106;11.708;2023-09-08T06:08:36;95847.78;;;14.52;100.00
1832;BME280;1680;48.106;11.708;2023-09-08T06:11:04;95849.22;;;14.59;100.00
1832;BME280;1680;48.106;11.708;2023-09-08T06:13:31;95829.88;;;14.54;100.00
1832;BME280;1680;48.106;11.708;2023-09-08T06:15:58;95843.00;;;14.82;100.00
1832;BME280;1680;48.106;11.708;2023-09-08T06:18:28;95840.28;;;14.93;100.00
1832;BME280;1680;48.106;11.708;2023-09-08T06:20:55;95841.72;;;15.01;100.00
1832;BME280;1680;48.106;11.708;2023-09-08T06:23:23;95822.19;;;15.02;100.00
1832;BME280;1680;48.106;11.708;2023-09-08T06:25:50;95818.81;;;15.06;100.00
1832;BME280;1680;48.106;11.708;2023-09-08T06:28:18;95841.91;;;15.32;100.00
1832;BME280;1680;48.106;11.708;2023-09-08T06:30:46;95842.94;;;15.48;100.00
1832;BME280;1680;48.106;11.708;2023-09-08T06:33:15;95821.31;;;15.51;100.00
1832;BME280;1680;48.106;11.708;2023-09-08T06:35:43;95847.78;;;15.77;100.00
1832;BME280;1680;48.106;11.708;2023-09-08T06:38:10;95845.09;;;15.93;100.00
1832;BME280;1680;48.106;11.708;2023-09-08T06:40:37;95845.00;;;16.10;100.00
1832;BME280;1680;48.106;11.708;2023-09-08T06:43:04;95856.03;;;16.28;100.00
1832;BME280;1680;48.106;11.708;2023-09-08T06:45:32;95855.59;;;16.31;100.00
1832;BME280;1680;48.106;11.708;2023-09-08T06:47:59;95856.56;;;16.52;100.00
1832;BME280;1680;48.106;11.708;2023-09-08T06:50:26;95845.34;;;16.71;100.00
1832;BME280;1680;48.106;11.708;2023-09-08T06:52:56;95851.44;;;16.98;100.00
1832;BME280;1680;48.106;11.708;2023-09-08T06:55:24;95846.47;;;17.06;100.00
1832;BME280;1680;48.106;11.708;2023-09-08T06:57:51;95849.44;;;17.20;100.00
1832;BME280;1680;48.106;11.708;2023-09-08T07:00:19;95838.44;;;17.33;100.00
1832;BME280;1680;48.106;11.708;2023-09-08T07:02:46;95859.28;;;17.65;100.00
1832;BME280;1680;48.106;11.708;2023-09-08T07:05:15;95845.50;;;17.63;100.00
1832;BME280;1680;48.106;11.708;2023-09-08T07:07:42;95846.63;;;17.77;100.00
1832;BME280;1680;48.106;11.708;2023-09-08T07:10:12;95856.25;;;17.93;100.00
1832;BME280;1680;48.106;11.708;2023-09-08T07:12:40;95849.09;;;17.99;100.00
1832;BME280;1680;48.106;11.708;2023-09-08T07:15:08;95859.25;;;18.17;100.00
1832;BME280;1680;48.106;11.708;2023-09-08T07:17:37;95851.09;;;18.28;100.00
1832;BME280;1680;48.106;11.708;2023-09-08T07:20:05;95838.88;;;18.37;100.00
1832;BME280;1680;48.106;11.708;2023-09-08T07:22:32;95868.44;;;18.70;100.00
1832;BME280;1680;48.106;11.708;2023-09-08T07:24:59;95844.78;;;18.59;100.00
1832;BME280;1680;48.106;11.708;2023-09-08T07:27:28;95857.81;;;19.00;100.00
1832;BME280;1680;48.106;11.708;2023-09-08T07:29:55;95845.06;;;19.02;100.00
1832;BME280;1680;48.106;11.708;2023-09-08T07:32:22;95832.03;;;19.06;100.00
1832;BME280;1680;48.106;11.708;2023-09-08T07:34:50;95854.34;;;19.40;100.00
1832;BME280;1680;48.106;11.708;2023-09-08T07:37:20;95849.53;;;19.42;100.00
1832;BME280;1680;48.106;11.708;2023-09-08T07:39:47;95849.00;;;19.45;100.00
1832;BME280;1680;48.106;11.708;2023-09-08T07:42:15;95852.97;;;19.57;100.00
1832;BME280;1680;48.106;11.708;2023-09-08T07:44:44;95857.50;;;19.61;100.00
1832;BME280;1680;48.106;11.708;2023-09-08T07:47:12;95851.59;;;19.74;100.00
1832;BME280;1680;48.106;11.708;2023-09-08T07:49:39;95852.34;;;19.90;100.00
1832;BME280;1680;48.106;11.708;2023-09-08T07:52:06;95840.41;;;19.82;100.00
1832;BME280;1680;48.106;11.708;2023-09-08T07:54:33;95847.84;;;19.80;100.00
1832;BME280;1680;48.106;11.708;2023-09-08T07:57:00;95858.97;;;20.07;100.00
1832;BME280;1680;48.106;11.708;2023-09-08T07:59:27;95858.31;;;20.30;100.00
1832;BME280;1680;48.106;11.708;2023-09-08T08:01:56;95859.34;;;20.39;100.00
1832;BME280;1680;48.106;11.708;2023-09-08T08:04:23;95856.69;;;20.39;100.00
1832;BME280;1680;48.106;11.708;2023-09-08T08:06:50;95856.28;;;20.55;100.00
1832;BME280;1680;48.106;11.708;2023-09-08T08:09:17;95857.53;;;20.73;100.00
1832;BME280;1680;48.106;11.708;2023-09-08T08:11:44;95864.72;;;20.72;100.00
1832;BME280;1680;48.106;11.708;2023-09-08T08:14:12;95863.31;;;20.90;100.00
1832;BME280;1680;48.106;11.708;2023-09-08T08:16:39;95862.19;;;20.96;100.00
1832;BME280;1680;48.106;11.708;2023-09-08T08:19:07;95860.97;;;21.12;100.00
1832;BME280;1680;48.106;11.708;2023-09-08T08:21:35;95855.84;;;21.20;100.00
1832;BME280;1680;48.106;11.708;2023-09-08T08:24:03;95862.19;;;21.52;100.00
1832;BME280;1680;48.106;11.708;2023-09-08T08:26:30;95854.78;;;21.50;100.00
1832;BME280;1680;48.106;11.708;2023-09-08T08:28:58;95853.63;;;21.60;100.00
1832;BME280;1680;48.106;11.708;2023-09-08T08:31:25;95858.72;;;21.80;100.00
1832;BME280;1680;48.106;11.708;2023-09-08T08:33:53;95848.69;;;21.72;100.00
1832;BME280;1680;48.106;11.708;2023-09-08T08:36:22;95851.66;;;21.94;100.00
1832;BME280;1680;48.106;11.708;2023-09-08T08:38:50;95853.81;;;21.92;100.00
1832;BME280;1680;48.106;11.708;2023-09-08T08:41:17;95852.81;;;22.07;100.00
1832;BME280;1680;48.106;11.708;2023-09-08T08:43:44;95854.97;;;22.05;100.00
1832;BME280;1680;48.106;11.708;2023-09-08T08:46:13;95859.72;;;22.31;100.00
1832;BME280;1680;48.106;11.708;2023-09-08T08:48:41;95858.09;;;22.35;100.00
1832;BME280;1680;48.106;11.708;2023-09-08T08:51:10;95855.13;;;22.37;100.00
1832;BME280;1680;48.106;11.708;2023-09-08T08:53:40;95853.69;;;22.44;100.00
1832;BME280;1680;48.106;11.708;2023-09-08T08:56:07;95858.19;;;22.67;99.82
1832;BME280;1680;48.106;11.708;2023-09-08T08:58:36;95838.25;;;22.78;97.54
1832;BME280;1680;48.106;11.708;2023-09-08T09:01:05;95852.59;;;23.00;99.73
1832;BME280;1680;48.106;11.708;2023-09-08T09:03:33;95849.91;;;23.00;100.00
1832;BME280;1680;48.106;11.708;2023-09-08T09:06:03;95819.00;;;22.76;100.00
1832;BME280;1680;48.106;11.708;2023-09-08T09:08:31;95847.56;;;22.80;97.75
1832;BME280;1680;48.106;11.708;2023-09-08T09:11:00;95850.28;;;22.94;98.69
1832;BME280;1680;48.106;11.708;2023-09-08T09:13:28;95832.88;;;22.78;97.18
1832;BME280;1680;48.106;11.708;2023-09-08T09:15:58;95850.22;;;23.17;96.95
1832;BME280;1680;48.106;11.708;2023-09-08T09:18:28;95837.69;;;23.45;95.18
1832;BME280;1680;48.106;11.708;2023-09-08T09:21:00;95840.28;;;23.50;100.00
1832;BME280;1680;48.106;11.708;2023-09-08T09:23:28;95842.63;;;23.38;98.43
1832;BME280;1680;48.106;11.708;2023-09-08T09:25:56;95832.81;;;23.47;95.07
1832;BME280;1680;48.106;11.708;2023-09-08T09:28:28;95842.88;;;23.68;93.26
1832;BME280;1680;48.106;11.708;2023-09-08T09:30:55;95823.44;;;23.76;90.24
1832;BME280;1680;48.106;11.708;2023-09-08T09:33:23;95843.09;;;23.71;90.28
1832;BME280;1680;48.106;11.708;2023-09-08T09:35:51;95833.34;;;23.75;91.91
1832;BME280;1680;48.106;11.708;2023-09-08T09:38:20;95820.16;;;23.65;93.22
1832;BME280;1680;48.106;11.708;2023-09-08T09:40:48;95817.88;;;23.59;93.56
1832;BME280;1680;48.106;11.708;2023-09-08T09:43:16;95837.56;;;23.81;96.62
1832;BME280;1680;48.106;11.708;2023-09-08T09:45:44;95831.22;;;23.91;94.34
1832;BME280;1680;48.106;11.708;2023-09-08T09:48:12;95820.88;;;24.11;96.09
1832;BME280;1680;48.106;11.708;2023-09-08T09:50:40;95826.84;;;24.08;89.78
1832;BME280;1680;48.106;11.708;2023-09-08T09:53:10;95824.34;;;24.25;90.61
1832;BME280;1680;48.106;11.708;2023-09-08T09:55:38;95828.38;;;24.36;91.13
1832;BME280;1680;48.106;11.708;2023-09-08T09:58:06;95818.66;;;24.40;89.80
1832;BME280;1680;48.106;11.708;2023-09-08T10:00:36;95821.63;;;24.52;87.90
1832;BME280;1680;48.106;11.708;2023-09-08T10:03:07;95813.03;;;24.77;85.83
1832;BME280;1680;48.106;11.708;2023-09-08T10:05:49;95821.78;;;24.69;90.95
1832;BME280;1680;48.106;11.708;2023-09-08T10:08:17;95818.41;;;24.63;92.40
1832;BME280;1680;48.106;11.708;2023-09-08T10:10:45;95819.22;;;24.64;87.02
1832;BME280;1680;48.106;11.708;2023-09-08T10:13:14;95809.47;;;24.90;88.91
1832;BME280;1680;48.106;11.708;2023-09-08T10:15:44;95815.53;;;24.95;87.25
1832;BME280;1680;48.106;11.708;2023-09-08T10:18:16;95768.78;;;24.96;85.50
1832;BME280;1680;48.106;11.708;2023-09-08T10:20:47;95802.50;;;25.11;88.01
1832;BME280;1680;48.106;11.708;2023-09-08T10:23:22;95805.38;;;25.36;84.25
1832;BME280;1680;48.106;11.708;2023-09-08T10:25:53;95802.34;;;25.29;86.08
1832;BME280;1680;48.106;11.708;2023-09-08T10:28:23;95812.25;;;25.51;81.37
1832;BME280;1680;48.106;11.708;2023-09-08T10:30:52;95803.63;;;25.32;82.83
1832;BME280;1680;48.106;11.708;2023-09-08T10:33:21;95805.44;;;25.45;82.15
1832;BME280;1680;48.106;11.708;2023-09-08T10:35:49;95787.25;;;25.42;81.33
1832;BME280;1680;48.106;11.708;2023-09-08T10:38:24;95806.13;;;25.58;81.95
1832;BME280;1680;48.106;11.708;2023-09-08T10:40:52;95785.81;;;25.74;81.99
1832;BME280;1680;48.106;11.708;2023-09-08T10:43:19;95791.75;;;25.93;78.66
1832;BME280;1680;48.106;11.708;2023-09-08T10:45:47;95801.41;;;25.94;78.87
1832;BME280;1680;48.106;11.708;2023-09-08T10:48:15;95800.78;;;25.97;78.86
1832;BME280;1680;48.106;11.708;2023-09-08T10:50:43;95801.63;;;26.15;77.92
1832;BME280;1680;48.106;11.708;2023-09-08T10:53:14;95802.22;;;26.03;82.63
1832;BME280;1680;48.106;11.708;2023-09-08T10:55:43;95795.06;;;25.90;82.63
1832;BME280;1680;48.106;11.708;2023-09-08T10:58:20;95790.94;;;25.84;82.16
1832;BME280;1680;48.106;11.708;2023-09-08T11:00:51;95776.06;;;25.78;81.13
1832;BME280;1680;48.106;11.708;2023-09-08T11:03:27;95785.00;;;26.13;78.33
1832;BME280;1680;48.106;11.708;2023-09-08T11:05:56;95789.16;;;26.27;80.32
1832;BME280;1680;48.106;11.708;2023-09-08T11:08:23;95795.19;;;26.41;77.72
1832;BME280;1680;48.106;11.708;2023-09-08T11:10:50;95795.88;;;26.63;75.60
1832;BME280;1680;48.106;11.708;2023-09-08T11:13:17;95777.81;;;26.64;75.65
1832;BME280;1680;48.106;11.708;2023-09-08T11:15:45;95792.22;;;26.76;74.15
1832;BME280;1680;48.106;11.708;2023-09-08T11:18:12;95790.47;;;26.55;75.54
1832;BME280;1680;48.106;11.708;2023-09-08T11:20:39;95794.59;;;26.69;77.35
1832;BME280;1680;48.106;11.708;2023-09-08T11:23:09;95792.69;;;26.70;74.92
1832;BME280;1680;48.106;11.708;2023-09-08T11:25:37;95795.88;;;26.72;78.52
1832;BME280;1680;48.106;11.708;2023-09-08T11:28:05;95789.19;;;26.53;76.05
1832;BME280;1680;48.106;11.708;2023-09-08T11:30:35;95787.94;;;26.67;78.26
1832;BME280;1680;48.106;11.708;2023-09-08T11:33:14;95797.28;;;26.95;74.88
1832;BME280;1680;48.106;11.708;2023-09-08T11:35:41;95792.38;;;27.14;74.42
1832;BME280;1680;48.106;11.708;2023-09-08T11:38:11;95800.25;;;27.27;72.95
1832;BME280;1680;48.106;11.708;2023-09-08T11:40:39;95798.53;;;27.31;73.81
1832;BME280;1680;48.106;11.708;2023-09-08T11:43:08;95795.94;;;27.43;70.62
1832;BME280;1680;48.106;11.708;2023-09-08T11:45:36;95788.53;;;27.32;72.67
1832;BME280;1680;48.106;11.708;2023-09-08T11:48:04;95784.06;;;27.36;71.17
1832;BME280;1680;48.106;11.708;2023-09-08T11:50:31;95790.41;;;27.40;72.08
1832;BME280;1680;48.106;11.708;2023-09-08T11:52:58;95791.72;;;27.34;72.11
1832;BME280;1680;48.106;11.708;2023-09-08T11:55:29;95779.81;;;27.35;72.09
1832;BME280;1680;48.106;11.708;2023-09-08T11:57:56;95786.41;;;27.54;71.64
1832;BME280;1680;48.106;11.708;2023-09-08T12:00:26;95784.66;;;27.66;69.84
1832;BME280;1680;48.106;11.708;2023-09-08T12:02:54;95778.13;;;27.59;73.34
1832;BME280;1680;48.106;11.708;2023-09-08T12:05:23;95781.41;;;27.81;69.47
1832;BME280;1680;48.106;11.708;2023-09-08T12:07:51;95781.91;;;27.75;69.26
1832;BME280;1680;48.106;11.708;2023-09-08T12:10:19;95772.03;;;27.87;69.95
1832;BME280;1680;48.106;11.708;2023-09-08T12:12:50;95774.22;;;27.94;66.61
1832;BME280;1680;48.106;11.708;2023-09-08T12:15:31;95788.69;;;27.89;68.99
1832;BME280;1680;48.106;11.708;2023-09-08T12:17:59;95782.09;;;27.78;68.59
1832;BME280;1680;48.106;11.708;2023-09-08T12:20:27;95789.41;;;27.69;70.21
1832;BME280;1680;48.106;11.708;2023-09-08T12:22:56;95779.28;;;27.50;70.00
1832;BME280;1680;48.106;11.708;2023-09-08T12:25:24;95784.31;;;27.76;69.67
1832;BME280;1680;48.106;11.708;2023-09-08T12:27:54;95778.25;;;27.79;68.49
1832;BME280;1680;48.106;11.708;2023-09-08T12:30:23;95784.22;;;27.93;69.12
1832;BME280;1680;48.106;11.708;2023-09-08T12:32:56;95783.22;;;28.06;69.58
1832;BME280;1680;48.106;11.708;2023-09-08T12:35:25;95782.56;;;27.72;68.98
1832;BME280;1680;48.106;11.708;2023-09-08T12:37:56;95770.28;;;27.91;67.73
1832;BME280;1680;48.106;11.708;2023-09-08T12:40:24;95760.69;;;28.02;69.64
1832;BME280;1680;48.106;11.708;2023-09-08T12:42:52;95783.91;;;28.24;67.85
1832;BME280;1680;48.106;11.708;2023-09-08T12:45:21;95772.94;;;28.29;68.03
1832;BME280;1680;48.106;11.708;2023-09-08T12:47:48;95779.88;;;28.09;68.43
1832;BME280;1680;48.106;11.708;2023-09-08T12:50:16;95776.34;;;28.09;69.47
1832;BME280;1680;48.106;11.708;2023-09-08T12:52:43;95769.66;;;28.15;68.34
1832;BME280;1680;48.106;11.708;2023-09-08T12:55:10;95773.16;;;28.15;67.90
1832;BME280;1680;48.106;11.708;2023-09-08T12:57:38;95771.25;;;28.45;65.87
1832;BME280;1680;48.106;11.708;2023-09-08T13:00:06;95764.41;;;28.18;65.71
1832;BME280;1680;48.106;11.708;2023-09-08T13:02:35;95771.38;;;28.48;64.40
1832;BME280;1680;48.106;11.708;2023-09-08T13:05:02;95767.38;;;28.25;66.62
1832;BME280;1680;48.106;11.708;2023-09-08T13:07:30;95760.50;;;28.07;67.20